Terminal Aerodrome Forecast
Issued by NWS

Home | Current Version | Previous Version | Text Only | Print | Product List | Glossary On
Versions: 1 2 3 4 5 6 7 8 9 10 11
069
FTUS42 TJSJ 070530
TAFNCM
TAF
TNCM 070530Z 0706/0806 11010KT P6SM FEW024
      TEMPO 0706/0707 5SM -SHRA SCT018
     FM071400 13012KT P6SM SCT019
     FM072300 12008KT P6SM FEW025=

USA.gov is the U.S. government's official web portal to all federal, state and local government web resources and services.